CPA413 RKSI-VHHH
Flight info
| Callsign | CPA413 |
|---|---|
| Flight time | N/A |
| Altitude | 40000 |
| Route | BOPTA2Y BOPTA Z51 BEDES Y711 MUGUS Y742 SALMI Q11 DRAKE A1 ELATO V522 ABBEY ABBEY4A |
| Aircraft | A333/H-SDE3GHIJ2J3J5M1RVWXY/LB2D1 |
Departure
| Time | N/A |
|---|---|
| Airport | Incheon International Airport (RKSI) |
Arrival
| Time | 2026-05-08 01:37 |
|---|---|
| Airport | Hong Kong International Airport (VHHH) |
| Time | Latitude | Longitude | Altitude | Speed | Heading |
|---|---|---|---|---|---|
| 2026-05-08 01:02 | 22.30549 | 116.17798 | 31695 ft | 473 kts | 271° |
| 2026-05-08 01:02 | 22.30454 | 116.14256 | 30941 ft | 472 kts | 271° |
| 2026-05-08 01:03 | 22.30363 | 116.10690 | 30087 ft | 477 kts | 271° |
| 2026-05-08 01:03 | 22.30269 | 116.07093 | 29170 ft | 481 kts | 270° |
| 2026-05-08 01:03 | 22.30175 | 116.03478 | 28356 ft | 482 kts | 270° |
| 2026-05-08 01:03 | 22.30081 | 115.99872 | 27850 ft | 477 kts | 270° |
| 2026-05-08 01:04 | 22.29986 | 115.96304 | 27181 ft | 476 kts | 270° |
| 2026-05-08 01:04 | 22.29891 | 115.92747 | 26661 ft | 471 kts | 270° |
| 2026-05-08 01:04 | 22.29796 | 115.89226 | 26085 ft | 468 kts | 270° |
| 2026-05-08 01:04 | 22.29703 | 115.85769 | 25545 ft | 465 kts | 270° |
| 2026-05-08 01:05 | 22.29609 | 115.82295 | 25009 ft | 462 kts | 269° |
| 2026-05-08 01:05 | 22.29517 | 115.78843 | 24536 ft | 457 kts | 269° |
| 2026-05-08 01:05 | 22.29427 | 115.75424 | 24046 ft | 453 kts | 269° |
| 2026-05-08 01:05 | 22.29337 | 115.72030 | 23545 ft | 451 kts | 269° |
| 2026-05-08 01:06 | 22.29247 | 115.68661 | 22972 ft | 447 kts | 269° |
| 2026-05-08 01:06 | 22.29159 | 115.65315 | 22476 ft | 442 kts | 269° |
| 2026-05-08 01:06 | 22.29071 | 115.62069 | 21990 ft | 436 kts | 269° |
| 2026-05-08 01:06 | 22.29014 | 115.58997 | 21548 ft | 431 kts | 269° |
| 2026-05-08 01:07 | 22.28934 | 115.55767 | 21029 ft | 427 kts | 269° |
| 2026-05-08 01:07 | 22.28841 | 115.52570 | 20539 ft | 422 kts | 269° |
| 2026-05-08 01:07 | 22.28742 | 115.49419 | 20081 ft | 418 kts | 268° |
| 2026-05-08 01:07 | 22.28644 | 115.46287 | 19596 ft | 415 kts | 268° |
| 2026-05-08 01:08 | 22.28549 | 115.43188 | 19129 ft | 411 kts | 268° |
| 2026-05-08 01:08 | 22.28457 | 115.40113 | 18655 ft | 409 kts | 268° |
| 2026-05-08 01:08 | 22.28368 | 115.37053 | 18172 ft | 406 kts | 268° |
| 2026-05-08 01:08 | 22.28281 | 115.34022 | 17660 ft | 402 kts | 268° |
| 2026-05-08 01:09 | 22.28192 | 115.31057 | 17224 ft | 398 kts | 268° |
| 2026-05-08 01:09 | 22.28102 | 115.28088 | 16783 ft | 393 kts | 268° |
| 2026-05-08 01:09 | 22.28013 | 115.25149 | 16330 ft | 390 kts | 268° |
| 2026-05-08 01:09 | 22.27923 | 115.22231 | 15885 ft | 386 kts | 268° |
| 2026-05-08 01:10 | 22.27833 | 115.19354 | 15445 ft | 383 kts | 268° |
| 2026-05-08 01:10 | 22.27743 | 115.16489 | 15011 ft | 380 kts | 268° |
| 2026-05-08 01:10 | 22.27655 | 115.13653 | 14572 ft | 377 kts | 268° |
| 2026-05-08 01:10 | 22.27566 | 115.10827 | 14137 ft | 374 kts | 268° |
| 2026-05-08 01:11 | 22.27477 | 115.08030 | 13695 ft | 371 kts | 268° |
| 2026-05-08 01:11 | 22.27389 | 115.05254 | 13222 ft | 368 kts | 268° |
| 2026-05-08 01:11 | 22.27301 | 115.02501 | 12795 ft | 365 kts | 268° |
| 2026-05-08 01:11 | 22.27214 | 114.99808 | 12639 ft | 352 kts | 268° |
| 2026-05-08 01:12 | 22.27130 | 114.97219 | 12548 ft | 338 kts | 268° |
| 2026-05-08 01:12 | 22.27050 | 114.94740 | 12396 ft | 321 kts | 268° |
| 2026-05-08 01:12 | 22.26973 | 114.92373 | 12251 ft | 311 kts | 268° |
| 2026-05-08 01:12 | 22.26899 | 114.90099 | 12117 ft | 304 kts | 268° |
| 2026-05-08 01:13 | 22.26824 | 114.87807 | 11977 ft | 306 kts | 268° |
| 2026-05-08 01:13 | 22.26748 | 114.85499 | 11656 ft | 308 kts | 268° |
| 2026-05-08 01:13 | 22.26671 | 114.83193 | 11318 ft | 306 kts | 268° |
| 2026-05-08 01:13 | 22.26579 | 114.80893 | 11062 ft | 311 kts | 265° |
| 2026-05-08 01:14 | 22.26120 | 114.78573 | 10830 ft | 324 kts | 248° |
| 2026-05-08 01:14 | 22.24927 | 114.76514 | 10667 ft | 326 kts | 229° |
| 2026-05-08 01:14 | 22.23336 | 114.74763 | 10505 ft | 325 kts | 225° |
| 2026-05-08 01:14 | 22.21710 | 114.73115 | 10366 ft | 315 kts | 224° |
| 2026-05-08 01:15 | 22.20138 | 114.71526 | 10205 ft | 305 kts | 224° |
| 2026-05-08 01:15 | 22.18614 | 114.69979 | 10053 ft | 297 kts | 224° |
| 2026-05-08 01:15 | 22.17152 | 114.68490 | 9866 ft | 290 kts | 224° |
| 2026-05-08 01:15 | 22.15695 | 114.67001 | 9690 ft | 288 kts | 224° |
| 2026-05-08 01:16 | 22.14243 | 114.65514 | 9536 ft | 288 kts | 224° |
| 2026-05-08 01:16 | 22.12789 | 114.64025 | 9391 ft | 288 kts | 224° |
| 2026-05-08 01:16 | 22.11331 | 114.62546 | 9231 ft | 288 kts | 223° |
| 2026-05-08 01:16 | 22.09865 | 114.61073 | 9081 ft | 288 kts | 223° |
| 2026-05-08 01:17 | 22.08405 | 114.59597 | 8917 ft | 288 kts | 223° |
| 2026-05-08 01:17 | 22.06951 | 114.58119 | 8773 ft | 287 kts | 223° |
| 2026-05-08 01:17 | 22.05500 | 114.56640 | 8619 ft | 287 kts | 223° |
| 2026-05-08 01:17 | 22.04049 | 114.55159 | 8474 ft | 287 kts | 223° |
| 2026-05-08 01:18 | 22.02654 | 114.53634 | 8327 ft | 285 kts | 231° |
| 2026-05-08 01:18 | 22.01645 | 114.51805 | 8187 ft | 284 kts | 244° |
| 2026-05-08 01:18 | 22.00860 | 114.49848 | 8015 ft | 284 kts | 247° |
| 2026-05-08 01:18 | 22.00118 | 114.47878 | 7864 ft | 283 kts | 247° |
| 2026-05-08 01:19 | 21.99389 | 114.45939 | 7724 ft | 282 kts | 247° |
| 2026-05-08 01:19 | 21.98649 | 114.43985 | 7574 ft | 281 kts | 247° |
| 2026-05-08 01:19 | 21.97908 | 114.42035 | 7413 ft | 281 kts | 247° |
| 2026-05-08 01:19 | 21.97163 | 114.40083 | 7249 ft | 281 kts | 247° |
| 2026-05-08 01:20 | 21.96419 | 114.38140 | 7131 ft | 281 kts | 247° |
| 2026-05-08 01:20 | 21.95677 | 114.36200 | 6984 ft | 280 kts | 247° |
| 2026-05-08 01:20 | 21.94934 | 114.34260 | 6819 ft | 280 kts | 247° |
| 2026-05-08 01:20 | 21.94192 | 114.32326 | 6672 ft | 279 kts | 247° |
| 2026-05-08 01:21 | 21.93449 | 114.30391 | 6512 ft | 279 kts | 247° |
| 2026-05-08 01:21 | 21.92709 | 114.28462 | 6376 ft | 278 kts | 246° |
| 2026-05-08 01:21 | 21.91972 | 114.26542 | 6222 ft | 277 kts | 246° |
| 2026-05-08 01:21 | 21.91243 | 114.24646 | 6079 ft | 277 kts | 246° |
| 2026-05-08 01:22 | 21.90506 | 114.22730 | 5919 ft | 277 kts | 246° |
| 2026-05-08 01:22 | 21.89830 | 114.20797 | 5783 ft | 276 kts | 255° |
| 2026-05-08 01:22 | 21.89706 | 114.18776 | 5629 ft | 269 kts | 279° |
| 2026-05-08 01:22 | 21.90327 | 114.16918 | 5481 ft | 259 kts | 295° |
| 2026-05-08 01:23 | 21.91164 | 114.15259 | 5431 ft | 245 kts | 298° |
| 2026-05-08 01:23 | 21.91956 | 114.13696 | 5350 ft | 231 kts | 296° |
| 2026-05-08 01:23 | 21.92692 | 114.12201 | 5235 ft | 220 kts | 296° |
| 2026-05-08 01:23 | 21.93390 | 114.10788 | 5140 ft | 207 kts | 296° |
| 2026-05-08 01:24 | 21.94050 | 114.09450 | 5036 ft | 199 kts | 296° |
| 2026-05-08 01:24 | 21.94695 | 114.08141 | 4897 ft | 197 kts | 296° |
| 2026-05-08 01:24 | 21.95121 | 114.07277 | 4834 ft | 197 kts | 296° |
| 2026-05-08 01:24 | 21.95762 | 114.05971 | 4723 ft | 197 kts | 296° |
| 2026-05-08 01:25 | 21.96615 | 114.04244 | 4554 ft | 196 kts | 296° |
| 2026-05-08 01:25 | 21.97045 | 114.03371 | 4475 ft | 196 kts | 296° |
| 2026-05-08 01:25 | 21.97681 | 114.02077 | 4353 ft | 195 kts | 296° |
| 2026-05-08 01:25 | 21.98313 | 114.00790 | 4225 ft | 194 kts | 296° |
| 2026-05-08 01:26 | 21.98943 | 113.99507 | 4105 ft | 194 kts | 296° |
| 2026-05-08 01:26 | 21.99568 | 113.98223 | 3981 ft | 193 kts | 296° |
| 2026-05-08 01:26 | 22.00186 | 113.96945 | 3857 ft | 192 kts | 296° |
| 2026-05-08 01:26 | 22.00800 | 113.95669 | 3735 ft | 192 kts | 296° |
| 2026-05-08 01:27 | 22.01404 | 113.94408 | 3624 ft | 192 kts | 296° |
| 2026-05-08 01:27 | 22.02015 | 113.93136 | 3501 ft | 191 kts | 296° |
| 2026-05-08 01:27 | 22.02621 | 113.91864 | 3376 ft | 190 kts | 296° |
| 2026-05-08 01:27 | 22.03222 | 113.90598 | 3269 ft | 190 kts | 296° |
| 2026-05-08 01:28 | 22.03824 | 113.89326 | 3144 ft | 190 kts | 296° |
| 2026-05-08 01:28 | 22.04424 | 113.88058 | 3027 ft | 189 kts | 297° |
| 2026-05-08 01:28 | 22.05076 | 113.86821 | 2914 ft | 189 kts | 300° |
| 2026-05-08 01:28 | 22.05749 | 113.85603 | 2797 ft | 189 kts | 300° |
| 2026-05-08 01:29 | 22.06422 | 113.84393 | 2667 ft | 188 kts | 300° |
| 2026-05-08 01:29 | 22.07088 | 113.83185 | 2512 ft | 187 kts | 300° |
| 2026-05-08 01:29 | 22.07803 | 113.82008 | 2340 ft | 187 kts | 305° |
| 2026-05-08 01:29 | 22.08574 | 113.80877 | 2162 ft | 187 kts | 306° |
| 2026-05-08 01:30 | 22.09431 | 113.79828 | 2031 ft | 185 kts | 315° |
| 2026-05-08 01:30 | 22.10366 | 113.78864 | 2015 ft | 186 kts | 316° |
| 2026-05-08 01:30 | 22.11359 | 113.77978 | 2010 ft | 186 kts | 324° |
| 2026-05-08 01:30 | 22.12433 | 113.77201 | 2011 ft | 186 kts | 326° |
| 2026-05-08 01:31 | 22.13519 | 113.76444 | 2013 ft | 185 kts | 326° |
| 2026-05-08 01:31 | 22.14611 | 113.75741 | 2015 ft | 186 kts | 333° |
| 2026-05-08 01:31 | 22.15790 | 113.75169 | 2015 ft | 185 kts | 336° |
| 2026-05-08 01:31 | 22.16987 | 113.74631 | 2005 ft | 186 kts | 336° |
| 2026-05-08 01:32 | 22.18205 | 113.74153 | 2004 ft | 187 kts | 343° |
| 2026-05-08 01:32 | 22.19470 | 113.73826 | 2009 ft | 186 kts | 346° |
| 2026-05-08 01:32 | 22.20735 | 113.73528 | 2009 ft | 186 kts | 346° |
| 2026-05-08 01:32 | 22.22012 | 113.73322 | 2005 ft | 187 kts | 359° |
| 2026-05-08 01:33 | 22.23310 | 113.73436 | 2011 ft | 187 kts | 5° |
| 2026-05-08 01:33 | 22.24594 | 113.73628 | 2005 ft | 186 kts | 7° |
| 2026-05-08 01:33 | 22.25723 | 113.74267 | 2008 ft | 188 kts | 43° |
| 2026-05-08 01:33 | 22.26463 | 113.75410 | 2016 ft | 190 kts | 64° |
| 2026-05-08 01:34 | 22.26911 | 113.76759 | 2015 ft | 191 kts | 70° |
| 2026-05-08 01:34 | 22.27333 | 113.78118 | 2016 ft | 191 kts | 68° |
| 2026-05-08 01:34 | 22.27769 | 113.79465 | 1990 ft | 190 kts | 68° |
| 2026-05-08 01:34 | 22.28191 | 113.80763 | 1772 ft | 176 kts | 68° |
| 2026-05-08 01:35 | 22.28578 | 113.81970 | 1525 ft | 164 kts | 68° |
| 2026-05-08 01:35 | 22.28939 | 113.83096 | 1313 ft | 154 kts | 69° |
| 2026-05-08 01:35 | 22.29288 | 113.84182 | 1110 ft | 153 kts | 68° |
| 2026-05-08 01:35 | 22.29638 | 113.85273 | 922 ft | 154 kts | 69° |
| 2026-05-08 01:36 | 22.29992 | 113.86374 | 727 ft | 155 kts | 69° |
| 2026-05-08 01:36 | 22.30342 | 113.87465 | 534 ft | 154 kts | 70° |
| 2026-05-08 01:36 | 22.30693 | 113.88554 | 299 ft | 153 kts | 68° |
| 2026-05-08 01:36 | 22.31038 | 113.89634 | 99 ft | 152 kts | 67° |
| 2026-05-08 01:37 | 22.31371 | 113.90663 | 35 ft | 125 kts | 71° |
| 2026-05-08 01:37 | 22.31593 | 113.91346 | 36 ft | 68 kts | 71° |
| 2026-05-08 01:37 | 22.31651 | 113.91628 | 36 ft | 27 kts | 85° |
| 2026-05-08 01:37 | 22.31639 | 113.91762 | 36 ft | 12 kts | 98° |
| 2026-05-08 01:38 | 22.31629 | 113.91854 | 36 ft | 12 kts | 98° |
| 2026-05-08 01:38 | 22.31612 | 113.91947 | 36 ft | 13 kts | 93° |
| 2026-05-08 01:38 | 22.31578 | 113.92028 | 36 ft | 12 kts | 143° |
| 2026-05-08 01:38 | 22.31500 | 113.92067 | 36 ft | 13 kts | 159° |
| 2026-05-08 01:39 | 22.31416 | 113.92098 | 35 ft | 13 kts | 162° |
| 2026-05-08 01:39 | 22.31330 | 113.92133 | 36 ft | 13 kts | 159° |
| 2026-05-08 01:39 | 22.31241 | 113.92168 | 36 ft | 14 kts | 161° |
| 2026-05-08 01:39 | 22.31196 | 113.92184 | 36 ft | 14 kts | 161° |
| 2026-05-08 01:40 | 22.31186 | 113.92188 | 36 ft | 14 kts | 161° |
| 2026-05-08 01:40 | 22.31092 | 113.92221 | 36 ft | 14 kts | 162° |
| 2026-05-08 01:40 | 22.30997 | 113.92254 | 36 ft | 15 kts | 162° |
| 2026-05-08 01:41 | 22.30914 | 113.92295 | 36 ft | 12 kts | 133° |
| 2026-05-08 01:41 | 22.30926 | 113.92368 | 36 ft | 10 kts | 35° |
| 2026-05-08 01:41 | 22.30991 | 113.92407 | 36 ft | 11 kts | 29° |
| 2026-05-08 01:41 | 22.31045 | 113.92437 | 36 ft | 8 kts | 26° |
| 2026-05-08 01:42 | 22.31087 | 113.92470 | 36 ft | 7 kts | 59° |
| 2026-05-08 01:42 | 22.31085 | 113.92516 | 36 ft | 5 kts | 105° |
| 2026-05-08 01:42 | 22.31077 | 113.92539 | 36 ft | 2 kts | 111° |
| 2026-05-08 01:42 | 22.31074 | 113.92547 | 36 ft | 1 kts | 113° |
| 2026-05-08 01:43 | 22.31072 | 113.92553 | 36 ft | 0 kts | 114° |
| 2026-05-08 01:43 | 22.31071 | 113.92555 | 36 ft | 0 kts | 114° |
| 2026-05-08 01:44 | 22.31072 | 113.92555 | 36 ft | 0 kts | 115° |